sensor_id;sensor_type;location;lat;lon;timestamp;P1;durP1;ratioP1;P2;durP2;ratioP2
44810;SDS011;30526;52.184;4.476;2022-10-18T00:01:16;21.25;;;4.38;;
44810;SDS011;30526;52.184;4.476;2022-10-18T00:03:42;15.38;;;4.07;;
44810;SDS011;30526;52.184;4.476;2022-10-18T00:06:08;12.88;;;3.92;;
44810;SDS011;30526;52.184;4.476;2022-10-18T00:08:35;18.83;;;3.72;;
44810;SDS011;30526;52.184;4.476;2022-10-18T00:11:01;15.88;;;3.97;;
44810;SDS011;30526;52.184;4.476;2022-10-18T00:13:27;11.95;;;3.78;;
44810;SDS011;30526;52.184;4.476;2022-10-18T00:15:55;15.18;;;3.90;;
44810;SDS011;30526;52.184;4.476;2022-10-18T00:18:24;17.13;;;3.42;;
44810;SDS011;30526;52.184;4.476;2022-10-18T00:20:58;13.85;;;3.83;;
44810;SDS011;30526;52.184;4.476;2022-10-18T00:23:24;19.45;;;4.22;;
44810;SDS011;30526;52.184;4.476;2022-10-18T00:26:01;21.80;;;4.18;;
44810;SDS011;30526;52.184;4.476;2022-10-18T00:28:27;17.48;;;3.38;;
44810;SDS011;30526;52.184;4.476;2022-10-18T00:30:53;20.13;;;3.75;;
44810;SDS011;30526;52.184;4.476;2022-10-18T00:33:19;23.48;;;3.53;;
44810;SDS011;30526;52.184;4.476;2022-10-18T00:35:48;10.07;;;3.63;;
44810;SDS011;30526;52.184;4.476;2022-10-18T00:38:14;12.77;;;3.22;;
44810;SDS011;30526;52.184;4.476;2022-10-18T00:40:40;31.17;;;4.35;;
44810;SDS011;30526;52.184;4.476;2022-10-18T00:43:07;21.33;;;4.15;;
44810;SDS011;30526;52.184;4.476;2022-10-18T00:45:33;28.92;;;3.55;;
44810;SDS011;30526;52.184;4.476;2022-10-18T00:48:00;10.60;;;3.25;;
44810;SDS011;30526;52.184;4.476;2022-10-18T00:52:54;12.43;;;2.72;;
44810;SDS011;30526;52.184;4.476;2022-10-18T00:55:28;18.08;;;3.60;;
44810;SDS011;30526;52.184;4.476;2022-10-18T00:57:55;11.65;;;3.47;;
44810;SDS011;30526;52.184;4.476;2022-10-18T01:00:29;19.60;;;3.38;;
44810;SDS011;30526;52.184;4.476;2022-10-18T01:02:55;21.42;;;3.97;;
44810;SDS011;30526;52.184;4.476;2022-10-18T01:05:25;40.00;;;4.85;;
44810;SDS011;30526;52.184;4.476;2022-10-18T01:08:00;18.35;;;4.13;;
44810;SDS011;30526;52.184;4.476;2022-10-18T01:13:17;22.05;;;4.28;;
44810;SDS011;30526;52.184;4.476;2022-10-18T01:15:49;22.70;;;4.35;;
44810;SDS011;30526;52.184;4.476;2022-10-18T01:29:31;26.50;;;5.10;;
44810;SDS011;30526;52.184;4.476;2022-10-18T01:32:09;28.27;;;5.90;;
44810;SDS011;30526;52.184;4.476;2022-10-18T01:34:36;32.25;;;6.35;;
44810;SDS011;30526;52.184;4.476;2022-10-18T01:37:04;26.55;;;4.85;;
44810;SDS011;30526;52.184;4.476;2022-10-18T01:39:37;33.97;;;6.95;;
44810;SDS011;30526;52.184;4.476;2022-10-18T01:42:05;53.00;;;6.97;;
44810;SDS011;30526;52.184;4.476;2022-10-18T01:44:32;25.58;;;6.97;;
44810;SDS011;30526;52.184;4.476;2022-10-18T01:46:58;39.85;;;6.95;;
44810;SDS011;30526;52.184;4.476;2022-10-18T01:49:30;40.92;;;6.82;;
44810;SDS011;30526;52.184;4.476;2022-10-18T01:51:57;32.80;;;7.00;;
44810;SDS011;30526;52.184;4.476;2022-10-18T01:54:31;38.75;;;7.75;;
44810;SDS011;30526;52.184;4.476;2022-10-18T01:57:06;44.13;;;7.20;;
44810;SDS011;30526;52.184;4.476;2022-10-18T01:59:45;37.87;;;7.10;;
44810;SDS011;30526;52.184;4.476;2022-10-18T02:04:56;31.35;;;6.13;;
44810;SDS011;30526;52.184;4.476;2022-10-18T02:10:09;35.80;;;7.82;;
44810;SDS011;30526;52.184;4.476;2022-10-18T02:12:38;29.10;;;8.13;;
44810;SDS011;30526;52.184;4.476;2022-10-18T02:15:08;32.45;;;6.78;;
44810;SDS011;30526;52.184;4.476;2022-10-18T02:17:37;25.15;;;7.18;;
44810;SDS011;30526;52.184;4.476;2022-10-18T02:20:05;28.20;;;7.15;;
44810;SDS011;30526;52.184;4.476;2022-10-18T02:22:37;22.05;;;6.25;;
44810;SDS011;30526;52.184;4.476;2022-10-18T02:25:05;25.63;;;6.63;;
44810;SDS011;30526;52.184;4.476;2022-10-18T02:27:37;27.60;;;6.75;;
44810;SDS011;30526;52.184;4.476;2022-10-18T02:30:06;27.10;;;6.53;;
44810;SDS011;30526;52.184;4.476;2022-10-18T02:32:34;27.95;;;5.63;;
44810;SDS011;30526;52.184;4.476;2022-10-18T02:35:10;33.33;;;6.88;;
44810;SDS011;30526;52.184;4.476;2022-10-18T02:37:38;22.88;;;7.15;;
44810;SDS011;30526;52.184;4.476;2022-10-18T02:40:05;26.90;;;7.05;;
44810;SDS011;30526;52.184;4.476;2022-10-18T02:42:35;22.90;;;5.28;;
44810;SDS011;30526;52.184;4.476;2022-10-18T02:45:02;31.08;;;7.05;;
44810;SDS011;30526;52.184;4.476;2022-10-18T02:47:28;27.02;;;7.07;;
44810;SDS011;30526;52.184;4.476;2022-10-18T02:49:54;29.02;;;7.10;;
44810;SDS011;30526;52.184;4.476;2022-10-18T02:52:20;21.85;;;6.07;;
44810;SDS011;30526;52.184;4.476;2022-10-18T02:54:46;19.35;;;5.85;;
44810;SDS011;30526;52.184;4.476;2022-10-18T02:57:15;35.20;;;7.00;;
44810;SDS011;30526;52.184;4.476;2022-10-18T02:59:41;38.00;;;6.50;;
44810;SDS011;30526;52.184;4.476;2022-10-18T03:02:07;25.35;;;7.22;;
44810;SDS011;30526;52.184;4.476;2022-10-18T03:04:37;28.13;;;7.32;;
44810;SDS011;30526;52.184;4.476;2022-10-18T03:07:06;35.38;;;7.72;;
44810;SDS011;30526;52.184;4.476;2022-10-18T03:09:32;21.75;;;6.78;;
44810;SDS011;30526;52.184;4.476;2022-10-18T03:11:58;24.88;;;6.07;;
44810;SDS011;30526;52.184;4.476;2022-10-18T03:14:24;19.83;;;6.15;;
44810;SDS011;30526;52.184;4.476;2022-10-18T03:16:50;15.05;;;5.60;;
44810;SDS011;30526;52.184;4.476;2022-10-18T03:19:16;28.30;;;7.18;;
44810;SDS011;30526;52.184;4.476;2022-10-18T03:21:41;31.08;;;5.93;;
44810;SDS011;30526;52.184;4.476;2022-10-18T03:24:07;39.45;;;7.38;;
44810;SDS011;30526;52.184;4.476;2022-10-18T03:26:36;47.50;;;7.70;;
44810;SDS011;30526;52.184;4.476;2022-10-18T03:29:02;28.85;;;7.03;;
44810;SDS011;30526;52.184;4.476;2022-10-18T03:31:28;33.85;;;8.10;;
44810;SDS011;30526;52.184;4.476;2022-10-18T03:33:54;51.05;;;7.85;;
44810;SDS011;30526;52.184;4.476;2022-10-18T03:36:20;24.17;;;6.63;;
44810;SDS011;30526;52.184;4.476;2022-10-18T03:38:46;29.83;;;8.13;;
44810;SDS011;30526;52.184;4.476;2022-10-18T03:41:12;34.80;;;7.53;;
44810;SDS011;30526;52.184;4.476;2022-10-18T03:43:38;83.40;;;7.63;;
44810;SDS011;30526;52.184;4.476;2022-10-18T03:46:04;58.88;;;8.13;;
44810;SDS011;30526;52.184;4.476;2022-10-18T03:48:32;42.15;;;7.50;;
44810;SDS011;30526;52.184;4.476;2022-10-18T03:50:58;94.22;;;8.68;;
44810;SDS011;30526;52.184;4.476;2022-10-18T03:53:27;45.50;;;7.13;;
44810;SDS011;30526;52.184;4.476;2022-10-18T03:55:53;25.67;;;6.72;;
44810;SDS011;30526;52.184;4.476;2022-10-18T03:58:19;19.13;;;6.40;;
44810;SDS011;30526;52.184;4.476;2022-10-18T04:00:50;22.08;;;6.43;;
44810;SDS011;30526;52.184;4.476;2022-10-18T04:03:16;18.05;;;7.03;;
44810;SDS011;30526;52.184;4.476;2022-10-18T04:05:43;23.20;;;6.63;;
44810;SDS011;30526;52.184;4.476;2022-10-18T04:08:09;22.50;;;4.53;;
44810;SDS011;30526;52.184;4.476;2022-10-18T04:10:39;17.08;;;5.78;;
44810;SDS011;30526;52.184;4.476;2022-10-18T04:13:05;30.98;;;6.15;;
44810;SDS011;30526;52.184;4.476;2022-10-18T04:15:32;27.23;;;6.47;;
44810;SDS011;30526;52.184;4.476;2022-10-18T04:17:58;30.83;;;6.38;;
44810;SDS011;30526;52.184;4.476;2022-10-18T04:20:25;38.00;;;6.57;;
44810;SDS011;30526;52.184;4.476;2022-10-18T04:22:51;28.55;;;6.55;;
44810;SDS011;30526;52.184;4.476;2022-10-18T04:25:19;27.17;;;6.05;;
44810;SDS011;30526;52.184;4.476;2022-10-18T04:27:45;18.88;;;5.22;;
44810;SDS011;30526;52.184;4.476;2022-10-18T04:30:13;30.52;;;5.10;;
44810;SDS011;30526;52.184;4.476;2022-10-18T04:32:41;21.10;;;5.65;;
44810;SDS011;30526;52.184;4.476;2022-10-18T04:35:08;19.95;;;5.57;;
44810;SDS011;30526;52.184;4.476;2022-10-18T04:37:34;21.08;;;5.53;;
44810;SDS011;30526;52.184;4.476;2022-10-18T04:40:02;35.03;;;6.22;;
44810;SDS011;30526;52.184;4.476;2022-10-18T04:42:31;22.70;;;5.15;;
44810;SDS011;30526;52.184;4.476;2022-10-18T04:45:01;25.70;;;5.15;;
44810;SDS011;30526;52.184;4.476;2022-10-18T04:47:29;27.45;;;5.03;;
44810;SDS011;30526;52.184;4.476;2022-10-18T04:52:28;19.00;;;5.10;;
44810;SDS011;30526;52.184;4.476;2022-10-18T04:54:54;29.83;;;5.25;;
44810;SDS011;30526;52.184;4.476;2022-10-18T04:57:22;30.48;;;4.82;;
44810;SDS011;30526;52.184;4.476;2022-10-18T04:59:48;16.92;;;5.07;;
44810;SDS011;30526;52.184;4.476;2022-10-18T05:02:14;22.88;;;4.85;;
44810;SDS011;30526;52.184;4.476;2022-10-18T05:04:40;25.75;;;5.20;;
44810;SDS011;30526;52.184;4.476;2022-10-18T05:07:06;31.77;;;5.78;;
44810;SDS011;30526;52.184;4.476;2022-10-18T05:09:32;36.03;;;6.25;;
44810;SDS011;30526;52.184;4.476;2022-10-18T05:12:00;32.28;;;5.97;;
44810;SDS011;30526;52.184;4.476;2022-10-18T05:14:26;30.40;;;5.25;;
44810;SDS011;30526;52.184;4.476;2022-10-18T05:16:52;33.65;;;5.68;;
44810;SDS011;30526;52.184;4.476;2022-10-18T05:19:18;36.00;;;5.75;;
44810;SDS011;30526;52.184;4.476;2022-10-18T05:21:44;27.85;;;5.00;;
44810;SDS011;30526;52.184;4.476;2022-10-18T05:24:10;22.23;;;5.25;;
44810;SDS011;30526;52.184;4.476;2022-10-18T05:26:36;24.17;;;4.47;;
44810;SDS011;30526;52.184;4.476;2022-10-18T05:29:02;29.80;;;5.35;;
44810;SDS011;30526;52.184;4.476;2022-10-18T05:31:28;28.55;;;5.63;;
44810;SDS011;30526;52.184;4.476;2022-10-18T05:33:54;21.95;;;5.30;;
44810;SDS011;30526;52.184;4.476;2022-10-18T05:36:20;40.10;;;6.43;;
44810;SDS011;30526;52.184;4.476;2022-10-18T05:38:50;30.02;;;5.75;;
44810;SDS011;30526;52.184;4.476;2022-10-18T05:43:43;14.15;;;4.05;;
44810;SDS011;30526;52.184;4.476;2022-10-18T05:46:09;15.32;;;4.45;;
44810;SDS011;30526;52.184;4.476;2022-10-18T05:51:03;17.05;;;3.83;;
44810;SDS011;30526;52.184;4.476;2022-10-18T05:53:30;26.55;;;4.90;;
44810;SDS011;30526;52.184;4.476;2022-10-18T05:55:59;19.38;;;4.70;;
44810;SDS011;30526;52.184;4.476;2022-10-18T05:58:25;24.73;;;5.15;;
44810;SDS011;30526;52.184;4.476;2022-10-18T06:00:52;11.90;;;3.45;;
44810;SDS011;30526;52.184;4.476;2022-10-18T06:03:18;17.10;;;4.18;;
44810;SDS011;30526;52.184;4.476;2022-10-18T06:05:44;23.75;;;4.47;;
44810;SDS011;30526;52.184;4.476;2022-10-18T06:08:10;19.73;;;4.50;;
44810;SDS011;30526;52.184;4.476;2022-10-18T06:10:39;24.48;;;4.15;;
44810;SDS011;30526;52.184;4.476;2022-10-18T06:13:05;17.33;;;4.28;;
44810;SDS011;30526;52.184;4.476;2022-10-18T06:15:31;14.52;;;4.18;;
44810;SDS011;30526;52.184;4.476;2022-10-18T06:17:57;15.23;;;3.60;;
44810;SDS011;30526;52.184;4.476;2022-10-18T06:20:23;14.52;;;3.78;;
44810;SDS011;30526;52.184;4.476;2022-10-18T06:22:52;14.43;;;4.15;;
44810;SDS011;30526;52.184;4.476;2022-10-18T06:25:18;16.55;;;4.68;;
44810;SDS011;30526;52.184;4.476;2022-10-18T06:27:44;19.52;;;3.92;;
44810;SDS011;30526;52.184;4.476;2022-10-18T06:30:10;19.85;;;4.25;;
44810;SDS011;30526;52.184;4.476;2022-10-18T06:32:36;29.40;;;4.40;;
44810;SDS011;30526;52.184;4.476;2022-10-18T06:35:02;16.67;;;4.60;;
44810;SDS011;30526;52.184;4.476;2022-10-18T06:37:28;21.05;;;4.38;;
44810;SDS011;30526;52.184;4.476;2022-10-18T06:39:54;16.20;;;4.95;;
44810;SDS011;30526;52.184;4.476;2022-10-18T06:42:20;25.50;;;5.30;;
44810;SDS011;30526;52.184;4.476;2022-10-18T06:44:46;16.33;;;4.53;;
44810;SDS011;30526;52.184;4.476;2022-10-18T06:47:13;24.83;;;4.30;;
44810;SDS011;30526;52.184;4.476;2022-10-18T06:49:40;24.60;;;4.60;;
44810;SDS011;30526;52.184;4.476;2022-10-18T06:52:06;15.50;;;4.70;;
44810;SDS011;30526;52.184;4.476;2022-10-18T06:54:32;20.17;;;4.57;;
44810;SDS011;30526;52.184;4.476;2022-10-18T06:56:58;22.45;;;4.68;;
44810;SDS011;30526;52.184;4.476;2022-10-18T06:59:26;21.05;;;4.82;;
44810;SDS011;30526;52.184;4.476;2022-10-18T07:01:52;28.65;;;4.72;;
44810;SDS011;30526;52.184;4.476;2022-10-18T07:04:18;24.55;;;4.60;;
44810;SDS011;30526;52.184;4.476;2022-10-18T07:06:44;21.15;;;5.88;;
44810;SDS011;30526;52.184;4.476;2022-10-18T07:09:10;17.48;;;4.55;;
44810;SDS011;30526;52.184;4.476;2022-10-18T07:11:36;23.55;;;5.28;;
44810;SDS011;30526;52.184;4.476;2022-10-18T07:14:03;16.10;;;3.83;;
44810;SDS011;30526;52.184;4.476;2022-10-18T07:16:30;14.20;;;4.40;;
44810;SDS011;30526;52.184;4.476;2022-10-18T07:18:56;16.40;;;4.93;;
44810;SDS011;30526;52.184;4.476;2022-10-18T07:21:23;20.98;;;5.40;;
44810;SDS011;30526;52.184;4.476;2022-10-18T07:23:49;22.15;;;5.80;;
44810;SDS011;30526;52.184;4.476;2022-10-18T07:28:42;21.88;;;5.72;;
44810;SDS011;30526;52.184;4.476;2022-10-18T07:31:08;17.80;;;5.20;;
44810;SDS011;30526;52.184;4.476;2022-10-18T07:33:35;21.17;;;5.40;;
44810;SDS011;30526;52.184;4.476;2022-10-18T07:36:05;17.23;;;5.47;;
44810;SDS011;30526;52.184;4.476;2022-10-18T07:38:31;17.30;;;4.00;;
44810;SDS011;30526;52.184;4.476;2022-10-18T07:40:58;14.40;;;4.13;;
44810;SDS011;30526;52.184;4.476;2022-10-18T07:43:25;24.30;;;5.75;;
44810;SDS011;30526;52.184;4.476;2022-10-18T07:45:51;20.05;;;5.78;;
44810;SDS011;30526;52.184;4.476;2022-10-18T07:48:17;33.30;;;5.93;;
44810;SDS011;30526;52.184;4.476;2022-10-18T07:50:43;28.65;;;5.68;;
44810;SDS011;30526;52.184;4.476;2022-10-18T07:53:09;17.23;;;5.57;;
44810;SDS011;30526;52.184;4.476;2022-10-18T07:55:35;31.85;;;5.95;;
44810;SDS011;30526;52.184;4.476;2022-10-18T07:58:01;24.75;;;6.22;;
44810;SDS011;30526;52.184;4.476;2022-10-18T08:00:27;22.27;;;5.55;;
44810;SDS011;30526;52.184;4.476;2022-10-18T08:02:54;16.90;;;5.63;;
44810;SDS011;30526;52.184;4.476;2022-10-18T08:05:21;21.88;;;5.68;;
44810;SDS011;30526;52.184;4.476;2022-10-18T08:07:47;34.35;;;6.40;;
44810;SDS011;30526;52.184;4.476;2022-10-18T08:10:13;23.13;;;5.38;;
44810;SDS011;30526;52.184;4.476;2022-10-18T08:12:39;20.15;;;5.43;;
44810;SDS011;30526;52.184;4.476;2022-10-18T08:15:06;21.67;;;5.27;;
44810;SDS011;30526;52.184;4.476;2022-10-18T08:17:32;19.60;;;5.70;;
44810;SDS011;30526;52.184;4.476;2022-10-18T08:19:58;24.30;;;5.57;;
44810;SDS011;30526;52.184;4.476;2022-10-18T08:22:24;23.60;;;5.22;;
44810;SDS011;30526;52.184;4.476;2022-10-18T08:24:50;22.40;;;5.40;;
44810;SDS011;30526;52.184;4.476;2022-10-18T08:27:16;19.25;;;4.75;;
44810;SDS011;30526;52.184;4.476;2022-10-18T08:29:42;16.08;;;4.13;;
44810;SDS011;30526;52.184;4.476;2022-10-18T08:32:07;15.55;;;4.15;;
44810;SDS011;30526;52.184;4.476;2022-10-18T08:34:34;15.43;;;4.57;;
44810;SDS011;30526;52.184;4.476;2022-10-18T08:37:00;13.25;;;3.28;;
44810;SDS011;30526;52.184;4.476;2022-10-18T08:41:58;15.27;;;2.58;;
44810;SDS011;30526;52.184;4.476;2022-10-18T08:44:28;20.38;;;2.72;;
44810;SDS011;30526;52.184;4.476;2022-10-18T08:46:57;9.82;;;2.50;;
44810;SDS011;30526;52.184;4.476;2022-10-18T08:49:25;13.48;;;2.10;;
44810;SDS011;30526;52.184;4.476;2022-10-18T08:51:52;18.67;;;2.25;;
44810;SDS011;30526;52.184;4.476;2022-10-18T08:54:36;11.70;;;1.88;;
44810;SDS011;30526;52.184;4.476;2022-10-18T08:57:09;18.38;;;1.90;;
44810;SDS011;30526;52.184;4.476;2022-10-18T08:59:38;16.20;;;1.92;;
44810;SDS011;30526;52.184;4.476;2022-10-18T09:07:37;14.45;;;1.60;;
44810;SDS011;30526;52.184;4.476;2022-10-18T09:17:54;16.52;;;2.15;;
44810;SDS011;30526;52.184;4.476;2022-10-18T09:20:23;15.15;;;1.65;;
44810;SDS011;30526;52.184;4.476;2022-10-18T09:25:21;16.17;;;1.73;;
44810;SDS011;30526;52.184;4.476;2022-10-18T09:28:09;11.45;;;1.70;;
44810;SDS011;30526;52.184;4.476;2022-10-18T09:35:56;15.88;;;2.40;;
44810;SDS011;30526;52.184;4.476;2022-10-18T09:38:25;13.77;;;1.58;;
44810;SDS011;30526;52.184;4.476;2022-10-18T09:40:59;15.85;;;1.60;;
44810;SDS011;30526;52.184;4.476;2022-10-18T09:43:34;10.68;;;1.92;;
44810;SDS011;30526;52.184;4.476;2022-10-18T09:46:04;10.38;;;1.33;;
44810;SDS011;30526;52.184;4.476;2022-10-18T09:48:36;10.55;;;1.23;;
44810;SDS011;30526;52.184;4.476;2022-10-18T09:51:12;12.90;;;1.48;;
44810;SDS011;30526;52.184;4.476;2022-10-18T09:53:42;13.18;;;1.77;;
44810;SDS011;30526;52.184;4.476;2022-10-18T09:56:16;11.10;;;1.67;;
44810;SDS011;30526;52.184;4.476;2022-10-18T09:58:44;10.57;;;1.55;;
44810;SDS011;30526;52.184;4.476;2022-10-18T10:03:36;8.27;;;1.33;;
44810;SDS011;30526;52.184;4.476;2022-10-18T10:08:41;10.85;;;1.20;;
44810;SDS011;30526;52.184;4.476;2022-10-18T10:14:07;7.45;;;1.17;;
44810;SDS011;30526;52.184;4.476;2022-10-18T10:16:42;10.63;;;1.30;;
44810;SDS011;30526;52.184;4.476;2022-10-18T10:19:14;7.53;;;1.02;;
44810;SDS011;30526;52.184;4.476;2022-10-18T10:21:43;14.05;;;1.52;;
44810;SDS011;30526;52.184;4.476;2022-10-18T10:24:31;7.38;;;1.00;;
44810;SDS011;30526;52.184;4.476;2022-10-18T10:27:03;6.43;;;1.05;;
44810;SDS011;30526;52.184;4.476;2022-10-18T10:29:38;8.48;;;1.30;;
44810;SDS011;30526;52.184;4.476;2022-10-18T10:32:16;9.45;;;1.52;;
44810;SDS011;30526;52.184;4.476;2022-10-18T10:34:43;7.95;;;1.35;;
44810;SDS011;30526;52.184;4.476;2022-10-18T10:37:52;14.15;;;1.52;;
44810;SDS011;30526;52.184;4.476;2022-10-18T10:40:05;9.27;;;1.52;;
44810;SDS011;30526;52.184;4.476;2022-10-18T10:42:32;6.18;;;1.58;;
44810;SDS011;30526;52.184;4.476;2022-10-18T10:44:58;17.88;;;1.42;;
44810;SDS011;30526;52.184;4.476;2022-10-18T10:47:32;10.20;;;1.38;;
44810;SDS011;30526;52.184;4.476;2022-10-18T10:49:58;13.30;;;1.85;;
44810;SDS011;30526;52.184;4.476;2022-10-18T10:52:33;10.10;;;1.42;;
44810;SDS011;30526;52.184;4.476;2022-10-18T10:54:59;4.32;;;1.27;;
44810;SDS011;30526;52.184;4.476;2022-10-18T10:57:27;8.23;;;1.30;;
44810;SDS011;30526;52.184;4.476;2022-10-18T10:59:54;8.23;;;1.27;;
44810;SDS011;30526;52.184;4.476;2022-10-18T11:02:22;14.82;;;1.60;;
44810;SDS011;30526;52.184;4.476;2022-10-18T11:04:51;12.60;;;1.52;;
44810;SDS011;30526;52.184;4.476;2022-10-18T11:07:25;5.00;;;0.90;;
44810;SDS011;30526;52.184;4.476;2022-10-18T11:10:00;11.13;;;1.63;;
44810;SDS011;30526;52.184;4.476;2022-10-18T11:20:12;10.88;;;1.52;;
44810;SDS011;30526;52.184;4.476;2022-10-18T11:22:42;12.63;;;1.42;;
44810;SDS011;30526;52.184;4.476;2022-10-18T11:25:13;9.23;;;1.45;;
44810;SDS011;30526;52.184;4.476;2022-10-18T11:27:40;9.00;;;1.25;;
44810;SDS011;30526;52.184;4.476;2022-10-18T11:35:21;4.35;;;1.10;;
44810;SDS011;30526;52.184;4.476;2022-10-18T11:38:11;7.70;;;1.60;;
44810;SDS011;30526;52.184;4.476;2022-10-18T11:40:45;7.05;;;1.60;;
44810;SDS011;30526;52.184;4.476;2022-10-18T12:06:40;8.90;;;1.48;;
44810;SDS011;30526;52.184;4.476;2022-10-18T12:09:24;7.05;;;1.45;;
44810;SDS011;30526;52.184;4.476;2022-10-18T12:14:58;3.50;;;0.80;;
44810;SDS011;30526;52.184;4.476;2022-10-18T12:19:59;5.93;;;1.40;;
44810;SDS011;30526;52.184;4.476;2022-10-18T12:22:50;6.93;;;1.25;;
44810;SDS011;30526;52.184;4.476;2022-10-18T12:27:40;4.43;;;1.10;;
44810;SDS011;30526;52.184;4.476;2022-10-18T12:30:52;9.20;;;1.63;;
44810;SDS011;30526;52.184;4.476;2022-10-18T12:33:02;7.63;;;1.50;;
44810;SDS011;30526;52.184;4.476;2022-10-18T12:35:30;3.80;;;0.93;;
44810;SDS011;30526;52.184;4.476;2022-10-18T12:38:09;4.45;;;1.20;;
44810;SDS011;30526;52.184;4.476;2022-10-18T12:40:47;5.15;;;1.30;;
44810;SDS011;30526;52.184;4.476;2022-10-18T12:43:16;8.30;;;2.00;;
44810;SDS011;30526;52.184;4.476;2022-10-18T12:45:53;7.30;;;1.23;;
44810;SDS011;30526;52.184;4.476;2022-10-18T12:48:36;5.68;;;1.23;;
44810;SDS011;30526;52.184;4.476;2022-10-18T12:51:13;6.13;;;1.10;;
44810;SDS011;30526;52.184;4.476;2022-10-18T12:53:40;7.40;;;1.50;;
44810;SDS011;30526;52.184;4.476;2022-10-18T12:58:51;7.53;;;1.48;;
44810;SDS011;30526;52.184;4.476;2022-10-18T13:01:17;5.23;;;1.50;;
44810;SDS011;30526;52.184;4.476;2022-10-18T13:03:51;7.80;;;1.55;;
44810;SDS011;30526;52.184;4.476;2022-10-18T13:06:18;5.00;;;1.60;;
44810;SDS011;30526;52.184;4.476;2022-10-18T13:08:44;7.63;;;1.65;;
44810;SDS011;30526;52.184;4.476;2022-10-18T13:11:31;6.72;;;1.58;;
44810;SDS011;30526;52.184;4.476;2022-10-18T13:16:57;6.35;;;1.50;;
44810;SDS011;30526;52.184;4.476;2022-10-18T13:19:28;8.45;;;1.60;;
44810;SDS011;30526;52.184;4.476;2022-10-18T13:24:37;9.45;;;1.40;;
44810;SDS011;30526;52.184;4.476;2022-10-18T13:27:22;6.75;;;1.27;;
44810;SDS011;30526;52.184;4.476;2022-10-18T13:32:35;5.28;;;1.30;;
44810;SDS011;30526;52.184;4.476;2022-10-18T13:35:39;6.20;;;1.70;;
44810;SDS011;30526;52.184;4.476;2022-10-18T13:37:57;7.43;;;1.55;;
44810;SDS011;30526;52.184;4.476;2022-10-18T13:40:24;5.80;;;1.42;;
44810;SDS011;30526;52.184;4.476;2022-10-18T13:42:50;6.72;;;1.45;;
44810;SDS011;30526;52.184;4.476;2022-10-18T13:50:42;6.93;;;1.35;;
44810;SDS011;30526;52.184;4.476;2022-10-18T13:58:29;7.35;;;1.17;;
44810;SDS011;30526;52.184;4.476;2022-10-18T14:01:11;5.07;;;1.00;;
44810;SDS011;30526;52.184;4.476;2022-10-18T14:06:16;3.53;;;1.30;;
44810;SDS011;30526;52.184;4.476;2022-10-18T14:16:30;4.63;;;1.10;;
44810;SDS011;30526;52.184;4.476;2022-10-18T14:21:42;4.63;;;1.27;;
44810;SDS011;30526;52.184;4.476;2022-10-18T14:24:16;5.28;;;1.13;;
44810;SDS011;30526;52.184;4.476;2022-10-18T14:26:43;8.23;;;1.33;;
44810;SDS011;30526;52.184;4.476;2022-10-18T14:29:15;6.35;;;1.60;;
44810;SDS011;30526;52.184;4.476;2022-10-18T14:31:42;10.63;;;1.40;;
44810;SDS011;30526;52.184;4.476;2022-10-18T14:34:14;6.35;;;1.30;;
44810;SDS011;30526;52.184;4.476;2022-10-18T14:36:40;5.65;;;1.33;;
44810;SDS011;30526;52.184;4.476;2022-10-18T14:39:14;3.90;;;1.52;;
44810;SDS011;30526;52.184;4.476;2022-10-18T14:41:48;7.78;;;1.77;;
44810;SDS011;30526;52.184;4.476;2022-10-18T14:46:57;6.07;;;1.73;;
44810;SDS011;30526;52.184;4.476;2022-10-18T14:49:23;8.93;;;1.60;;
44810;SDS011;30526;52.184;4.476;2022-10-18T14:51:50;3.33;;;1.07;;
44810;SDS011;30526;52.184;4.476;2022-10-18T14:54:31;6.78;;;1.23;;
44810;SDS011;30526;52.184;4.476;2022-10-18T14:56:58;3.47;;;1.25;;
44810;SDS011;30526;52.184;4.476;2022-10-18T15:01:51;3.75;;;0.93;;
44810;SDS011;30526;52.184;4.476;2022-10-18T15:04:17;5.32;;;1.30;;
44810;SDS011;30526;52.184;4.476;2022-10-18T15:06:44;6.45;;;1.58;;
44810;SDS011;30526;52.184;4.476;2022-10-18T15:09:10;6.85;;;1.65;;
44810;SDS011;30526;52.184;4.476;2022-10-18T15:11:38;4.55;;;1.10;;
44810;SDS011;30526;52.184;4.476;2022-10-18T15:14:06;5.25;;;1.38;;
44810;SDS011;30526;52.184;4.476;2022-10-18T15:16:35;5.00;;;1.42;;
44810;SDS011;30526;52.184;4.476;2022-10-18T15:21:28;5.47;;;1.08;;
44810;SDS011;30526;52.184;4.476;2022-10-18T15:23:54;6.88;;;1.42;;
44810;SDS011;30526;52.184;4.476;2022-10-18T15:26:41;4.43;;;0.95;;
44810;SDS011;30526;52.184;4.476;2022-10-18T15:29:13;5.75;;;1.40;;
44810;SDS011;30526;52.184;4.476;2022-10-18T15:31:40;7.55;;;1.20;;
44810;SDS011;30526;52.184;4.476;2022-10-18T15:34:09;5.63;;;1.90;;
44810;SDS011;30526;52.184;4.476;2022-10-18T15:36:36;4.13;;;1.63;;
44810;SDS011;30526;52.184;4.476;2022-10-18T15:39:03;5.28;;;1.50;;
44810;SDS011;30526;52.184;4.476;2022-10-18T15:41:40;6.90;;;1.48;;
44810;SDS011;30526;52.184;4.476;2022-10-18T15:44:13;9.27;;;1.83;;
44810;SDS011;30526;52.184;4.476;2022-10-18T15:46:43;10.23;;;1.50;;
44810;SDS011;30526;52.184;4.476;2022-10-18T15:49:36;7.22;;;1.42;;
44810;SDS011;30526;52.184;4.476;2022-10-18T15:54:29;6.83;;;1.77;;
44810;SDS011;30526;52.184;4.476;2022-10-18T15:56:55;7.30;;;1.67;;
44810;SDS011;30526;52.184;4.476;2022-10-18T15:59:25;6.90;;;1.52;;
44810;SDS011;30526;52.184;4.476;2022-10-18T16:01:52;7.45;;;1.67;;
44810;SDS011;30526;52.184;4.476;2022-10-18T16:04:19;7.45;;;1.40;;
44810;SDS011;30526;52.184;4.476;2022-10-18T16:06:47;10.43;;;1.83;;
44810;SDS011;30526;52.184;4.476;2022-10-18T16:09:17;8.32;;;1.40;;
44810;SDS011;30526;52.184;4.476;2022-10-18T16:11:43;9.88;;;1.65;;
44810;SDS011;30526;52.184;4.476;2022-10-18T16:14:10;6.28;;;1.38;;
44810;SDS011;30526;52.184;4.476;2022-10-18T16:16:35;10.40;;;1.35;;
44810;SDS011;30526;52.184;4.476;2022-10-18T16:19:02;8.18;;;1.60;;
44810;SDS011;30526;52.184;4.476;2022-10-18T16:21:29;12.27;;;1.57;;
44810;SDS011;30526;52.184;4.476;2022-10-18T16:23:55;10.07;;;1.75;;
44810;SDS011;30526;52.184;4.476;2022-10-18T16:26:22;9.63;;;1.52;;
44810;SDS011;30526;52.184;4.476;2022-10-18T16:28:48;7.57;;;1.50;;
44810;SDS011;30526;52.184;4.476;2022-10-18T16:31:20;10.70;;;1.58;;
44810;SDS011;30526;52.184;4.476;2022-10-18T16:33:46;8.48;;;1.77;;
44810;SDS011;30526;52.184;4.476;2022-10-18T16:36:16;12.00;;;2.00;;
44810;SDS011;30526;52.184;4.476;2022-10-18T16:38:42;10.00;;;1.90;;
44810;SDS011;30526;52.184;4.476;2022-10-18T16:41:08;7.90;;;1.65;;
44810;SDS011;30526;52.184;4.476;2022-10-18T16:43:34;11.90;;;2.63;;
44810;SDS011;30526;52.184;4.476;2022-10-18T16:46:01;11.63;;;2.00;;
44810;SDS011;30526;52.184;4.476;2022-10-18T16:48:27;10.30;;;2.03;;
44810;SDS011;30526;52.184;4.476;2022-10-18T16:50:54;12.70;;;1.85;;
44810;SDS011;30526;52.184;4.476;2022-10-18T16:53:21;15.07;;;2.20;;
44810;SDS011;30526;52.184;4.476;2022-10-18T16:55:52;12.40;;;2.08;;
44810;SDS011;30526;52.184;4.476;2022-10-18T16:58:18;10.10;;;2.08;;
44810;SDS011;30526;52.184;4.476;2022-10-18T17:00:44;9.48;;;2.58;;
44810;SDS011;30526;52.184;4.476;2022-10-18T17:03:11;8.02;;;1.67;;
44810;SDS011;30526;52.184;4.476;2022-10-18T17:05:37;10.27;;;3.20;;
44810;SDS011;30526;52.184;4.476;2022-10-18T17:08:03;9.85;;;2.13;;
44810;SDS011;30526;52.184;4.476;2022-10-18T17:10:29;7.88;;;2.00;;
44810;SDS011;30526;52.184;4.476;2022-10-18T17:12:55;18.42;;;2.17;;
44810;SDS011;30526;52.184;4.476;2022-10-18T17:15:21;5.63;;;1.77;;
44810;SDS011;30526;52.184;4.476;2022-10-18T17:17:47;10.15;;;2.22;;
44810;SDS011;30526;52.184;4.476;2022-10-18T17:20:21;10.23;;;2.50;;